sensor_id;sensor_type;location;lat;lon;timestamp;P1;durP1;ratioP1;P2;durP2;ratioP2
29210;SDS011;16250;49.932;10.980;2023-04-03T00:00:58;11.20;;;10.50;;
29210;SDS011;16250;49.932;10.980;2023-04-03T00:03:23;9.43;;;8.82;;
29210;SDS011;16250;49.932;10.980;2023-04-03T00:05:49;5.00;;;4.60;;
29210;SDS011;16250;49.932;10.980;2023-04-03T00:08:14;5.30;;;4.25;;
29210;SDS011;16250;49.932;10.980;2023-04-03T00:10:40;5.15;;;4.80;;
29210;SDS011;16250;49.932;10.980;2023-04-03T00:13:05;5.00;;;4.60;;
29210;SDS011;16250;49.932;10.980;2023-04-03T00:15:31;3.95;;;3.63;;
29210;SDS011;16250;49.932;10.980;2023-04-03T00:17:57;4.32;;;3.97;;
29210;SDS011;16250;49.932;10.980;2023-04-03T00:20:22;4.63;;;4.22;;
29210;SDS011;16250;49.932;10.980;2023-04-03T00:22:48;5.05;;;4.65;;
29210;SDS011;16250;49.932;10.980;2023-04-03T00:25:13;5.00;;;4.60;;
29210;SDS011;16250;49.932;10.980;2023-04-03T00:27:39;5.70;;;5.28;;
29210;SDS011;16250;49.932;10.980;2023-04-03T00:30:05;5.50;;;5.03;;
29210;SDS011;16250;49.932;10.980;2023-04-03T00:32:31;6.28;;;5.68;;
29210;SDS011;16250;49.932;10.980;2023-04-03T00:34:57;8.02;;;7.53;;
29210;SDS011;16250;49.932;10.980;2023-04-03T00:37:23;7.78;;;7.18;;
29210;SDS011;16250;49.932;10.980;2023-04-03T00:39:48;7.25;;;6.65;;
29210;SDS011;16250;49.932;10.980;2023-04-03T00:42:13;5.78;;;5.03;;
29210;SDS011;16250;49.932;10.980;2023-04-03T00:47:05;6.88;;;6.28;;
29210;SDS011;16250;49.932;10.980;2023-04-03T00:49:33;5.88;;;5.47;;
29210;SDS011;16250;49.932;10.980;2023-04-03T00:51:58;6.40;;;5.97;;
29210;SDS011;16250;49.932;10.980;2023-04-03T00:54:25;8.45;;;7.95;;
29210;SDS011;16250;49.932;10.980;2023-04-03T00:56:51;8.60;;;7.88;;
29210;SDS011;16250;49.932;10.980;2023-04-03T00:59:18;8.35;;;7.75;;
29210;SDS011;16250;49.932;10.980;2023-04-03T01:01:48;8.95;;;8.35;;
29210;SDS011;16250;49.932;10.980;2023-04-03T01:07:17;8.38;;;7.70;;
29210;SDS011;16250;49.932;10.980;2023-04-03T01:09:45;8.32;;;7.75;;
29210;SDS011;16250;49.932;10.980;2023-04-03T01:12:13;10.18;;;9.38;;
29210;SDS011;16250;49.932;10.980;2023-04-03T01:14:43;10.45;;;9.57;;
29210;SDS011;16250;49.932;10.980;2023-04-03T01:22:29;8.13;;;7.38;;
29210;SDS011;16250;49.932;10.980;2023-04-03T01:24:57;8.55;;;7.85;;
29210;SDS011;16250;49.932;10.980;2023-04-03T01:27:22;8.80;;;8.20;;
29210;SDS011;16250;49.932;10.980;2023-04-03T01:29:48;7.53;;;6.95;;
29210;SDS011;16250;49.932;10.980;2023-04-03T01:32:13;8.27;;;7.63;;
29210;SDS011;16250;49.932;10.980;2023-04-03T01:34:40;8.43;;;7.93;;
29210;SDS011;16250;49.932;10.980;2023-04-03T01:37:05;8.88;;;8.25;;
29210;SDS011;16250;49.932;10.980;2023-04-03T01:39:31;9.85;;;9.25;;
29210;SDS011;16250;49.932;10.980;2023-04-03T01:41:56;10.43;;;9.52;;
29210;SDS011;16250;49.932;10.980;2023-04-03T01:44:29;9.43;;;8.82;;
29210;SDS011;16250;49.932;10.980;2023-04-03T01:46:55;8.68;;;7.93;;
29210;SDS011;16250;49.932;10.980;2023-04-03T01:49:22;10.40;;;9.48;;
29210;SDS011;16250;49.932;10.980;2023-04-03T01:51:48;11.63;;;10.85;;
29210;SDS011;16250;49.932;10.980;2023-04-03T01:54:13;10.35;;;9.55;;
29210;SDS011;16250;49.932;10.980;2023-04-03T01:56:39;11.48;;;10.75;;
29210;SDS011;16250;49.932;10.980;2023-04-03T01:59:04;14.10;;;13.10;;
29210;SDS011;16250;49.932;10.980;2023-04-03T02:01:30;11.10;;;10.35;;
29210;SDS011;16250;49.932;10.980;2023-04-03T02:03:56;10.73;;;10.00;;
29210;SDS011;16250;49.932;10.980;2023-04-03T02:06:21;11.13;;;10.15;;
29210;SDS011;16250;49.932;10.980;2023-04-03T02:08:46;12.02;;;11.23;;
29210;SDS011;16250;49.932;10.980;2023-04-03T02:11:13;9.95;;;9.25;;
29210;SDS011;16250;49.932;10.980;2023-04-03T02:13:39;13.15;;;12.27;;
29210;SDS011;16250;49.932;10.980;2023-04-03T02:16:09;11.82;;;11.13;;
29210;SDS011;16250;49.932;10.980;2023-04-03T02:18:35;11.85;;;11.05;;
29210;SDS011;16250;49.932;10.980;2023-04-03T02:21:00;11.70;;;10.85;;
29210;SDS011;16250;49.932;10.980;2023-04-03T02:23:26;13.02;;;12.20;;
29210;SDS011;16250;49.932;10.980;2023-04-03T02:25:51;14.20;;;13.20;;
29210;SDS011;16250;49.932;10.980;2023-04-03T02:28:17;11.95;;;11.05;;
29210;SDS011;16250;49.932;10.980;2023-04-03T02:30:42;11.82;;;10.88;;
29210;SDS011;16250;49.932;10.980;2023-04-03T02:33:07;12.65;;;11.65;;
29210;SDS011;16250;49.932;10.980;2023-04-03T02:35:33;12.82;;;11.93;;
29210;SDS011;16250;49.932;10.980;2023-04-03T02:37:59;11.57;;;10.63;;
29210;SDS011;16250;49.932;10.980;2023-04-03T02:40:25;10.40;;;9.52;;
29210;SDS011;16250;49.932;10.980;2023-04-03T02:42:50;13.93;;;12.88;;
29210;SDS011;16250;49.932;10.980;2023-04-03T02:45:17;13.48;;;12.50;;
29210;SDS011;16250;49.932;10.980;2023-04-03T02:47:42;16.60;;;15.50;;
29210;SDS011;16250;49.932;10.980;2023-04-03T02:50:08;14.88;;;13.98;;
29210;SDS011;16250;49.932;10.980;2023-04-03T02:52:34;13.63;;;12.73;;
29210;SDS011;16250;49.932;10.980;2023-04-03T02:55:00;13.60;;;12.73;;
29210;SDS011;16250;49.932;10.980;2023-04-03T02:57:25;15.68;;;14.43;;
29210;SDS011;16250;49.932;10.980;2023-04-03T02:59:51;15.20;;;14.10;;
29210;SDS011;16250;49.932;10.980;2023-04-03T03:02:16;14.18;;;13.18;;
29210;SDS011;16250;49.932;10.980;2023-04-03T03:04:42;14.05;;;12.95;;
29210;SDS011;16250;49.932;10.980;2023-04-03T03:07:07;13.38;;;12.27;;
29210;SDS011;16250;49.932;10.980;2023-04-03T03:09:33;13.60;;;12.50;;
29210;SDS011;16250;49.932;10.980;2023-04-03T03:11:59;13.25;;;12.25;;
29210;SDS011;16250;49.932;10.980;2023-04-03T03:14:24;12.15;;;11.10;;
29210;SDS011;16250;49.932;10.980;2023-04-03T03:16:49;14.15;;;13.15;;
29210;SDS011;16250;49.932;10.980;2023-04-03T03:19:15;12.95;;;11.95;;
29210;SDS011;16250;49.932;10.980;2023-04-03T03:21:40;13.05;;;12.15;;
29210;SDS011;16250;49.932;10.980;2023-04-03T03:24:06;14.10;;;13.10;;
29210;SDS011;16250;49.932;10.980;2023-04-03T03:26:32;14.32;;;13.18;;
29210;SDS011;16250;49.932;10.980;2023-04-03T03:28:57;13.88;;;12.88;;
29210;SDS011;16250;49.932;10.980;2023-04-03T03:31:23;15.38;;;14.27;;
29210;SDS011;16250;49.932;10.980;2023-04-03T03:33:48;15.48;;;14.38;;
29210;SDS011;16250;49.932;10.980;2023-04-03T03:36:13;14.85;;;13.65;;
29210;SDS011;16250;49.932;10.980;2023-04-03T03:38:39;14.32;;;13.38;;
29210;SDS011;16250;49.932;10.980;2023-04-03T03:41:05;15.00;;;13.88;;
29210;SDS011;16250;49.932;10.980;2023-04-03T03:43:32;14.98;;;13.90;;
29210;SDS011;16250;49.932;10.980;2023-04-03T03:45:57;13.98;;;12.98;;
29210;SDS011;16250;49.932;10.980;2023-04-03T03:48:24;16.25;;;14.80;;
29210;SDS011;16250;49.932;10.980;2023-04-03T03:50:50;17.25;;;16.08;;
29210;SDS011;16250;49.932;10.980;2023-04-03T03:53:17;15.18;;;14.18;;
29210;SDS011;16250;49.932;10.980;2023-04-03T03:55:42;14.35;;;13.55;;
29210;SDS011;16250;49.932;10.980;2023-04-03T03:58:08;12.50;;;11.63;;
29210;SDS011;16250;49.932;10.980;2023-04-03T04:00:34;12.32;;;10.88;;
29210;SDS011;16250;49.932;10.980;2023-04-03T04:03:00;11.07;;;10.02;;
29210;SDS011;16250;49.932;10.980;2023-04-03T04:05:28;10.45;;;9.50;;
29210;SDS011;16250;49.932;10.980;2023-04-03T04:07:53;11.52;;;10.50;;
29210;SDS011;16250;49.932;10.980;2023-04-03T04:10:20;10.90;;;9.82;;
29210;SDS011;16250;49.932;10.980;2023-04-03T04:12:46;10.52;;;9.63;;
29210;SDS011;16250;49.932;10.980;2023-04-03T04:15:12;11.70;;;10.60;;
29210;SDS011;16250;49.932;10.980;2023-04-03T04:17:38;12.10;;;11.10;;
29210;SDS011;16250;49.932;10.980;2023-04-03T04:20:06;13.02;;;11.90;;
29210;SDS011;16250;49.932;10.980;2023-04-03T04:22:32;13.73;;;12.63;;
29210;SDS011;16250;49.932;10.980;2023-04-03T04:24:58;11.65;;;10.65;;
29210;SDS011;16250;49.932;10.980;2023-04-03T04:27:24;12.80;;;11.75;;
29210;SDS011;16250;49.932;10.980;2023-04-03T04:29:50;11.90;;;10.95;;
29210;SDS011;16250;49.932;10.980;2023-04-03T04:32:16;10.45;;;9.43;;
29210;SDS011;16250;49.932;10.980;2023-04-03T04:34:41;11.80;;;10.82;;
29210;SDS011;16250;49.932;10.980;2023-04-03T04:37:07;12.52;;;11.52;;
29210;SDS011;16250;49.932;10.980;2023-04-03T04:39:32;12.73;;;11.55;;
29210;SDS011;16250;49.932;10.980;2023-04-03T04:41:58;12.32;;;11.38;;
29210;SDS011;16250;49.932;10.980;2023-04-03T04:44:26;13.10;;;12.10;;
29210;SDS011;16250;49.932;10.980;2023-04-03T04:46:51;14.50;;;13.27;;
29210;SDS011;16250;49.932;10.980;2023-04-03T04:49:18;15.73;;;12.25;;
29210;SDS011;16250;49.932;10.980;2023-04-03T04:51:44;14.35;;;13.38;;
29210;SDS011;16250;49.932;10.980;2023-04-03T04:54:10;12.27;;;11.23;;
29210;SDS011;16250;49.932;10.980;2023-04-03T04:56:37;13.05;;;11.95;;
29210;SDS011;16250;49.932;10.980;2023-04-03T04:59:03;13.00;;;11.98;;
29210;SDS011;16250;49.932;10.980;2023-04-03T05:01:29;12.48;;;11.55;;
29210;SDS011;16250;49.932;10.980;2023-04-03T05:04:10;10.88;;;9.93;;
29210;SDS011;16250;49.932;10.980;2023-04-03T05:06:38;12.10;;;11.02;;
29210;SDS011;16250;49.932;10.980;2023-04-03T05:09:07;9.95;;;9.15;;
29210;SDS011;16250;49.932;10.980;2023-04-03T05:11:34;11.52;;;8.73;;
29210;SDS011;16250;49.932;10.980;2023-04-03T05:14:00;8.75;;;7.95;;
29210;SDS011;16250;49.932;10.980;2023-04-03T05:16:27;8.95;;;8.02;;
29210;SDS011;16250;49.932;10.980;2023-04-03T05:18:53;9.68;;;8.52;;
29210;SDS011;16250;49.932;10.980;2023-04-03T05:21:21;9.90;;;8.90;;
29210;SDS011;16250;49.932;10.980;2023-04-03T05:23:49;8.43;;;7.60;;
29210;SDS011;16250;49.932;10.980;2023-04-03T05:26:15;14.25;;;8.27;;
29210;SDS011;16250;49.932;10.980;2023-04-03T05:28:41;9.65;;;8.75;;
29210;SDS011;16250;49.932;10.980;2023-04-03T05:31:07;10.05;;;8.30;;
29210;SDS011;16250;49.932;10.980;2023-04-03T05:33:35;8.57;;;7.22;;
29210;SDS011;16250;49.932;10.980;2023-04-03T05:36:02;10.75;;;7.30;;
29210;SDS011;16250;49.932;10.980;2023-04-03T05:38:29;10.80;;;8.13;;
29210;SDS011;16250;49.932;10.980;2023-04-03T05:40:56;9.45;;;7.43;;
29210;SDS011;16250;49.932;10.980;2023-04-03T05:43:21;8.57;;;7.85;;
29210;SDS011;16250;49.932;10.980;2023-04-03T05:45:48;8.32;;;7.50;;
29210;SDS011;16250;49.932;10.980;2023-04-03T05:48:14;10.38;;;8.25;;
29210;SDS011;16250;49.932;10.980;2023-04-03T05:50:39;9.35;;;8.43;;
29210;SDS011;16250;49.932;10.980;2023-04-03T05:53:07;12.23;;;8.00;;
29210;SDS011;16250;49.932;10.980;2023-04-03T05:55:45;8.98;;;8.07;;
29210;SDS011;16250;49.932;10.980;2023-04-03T05:58:11;8.45;;;7.40;;
29210;SDS011;16250;49.932;10.980;2023-04-03T06:00:37;9.98;;;7.82;;
29210;SDS011;16250;49.932;10.980;2023-04-03T06:03:02;7.60;;;6.68;;
29210;SDS011;16250;49.932;10.980;2023-04-03T06:05:28;9.50;;;6.93;;
29210;SDS011;16250;49.932;10.980;2023-04-03T06:07:53;7.72;;;6.93;;
29210;SDS011;16250;49.932;10.980;2023-04-03T06:10:19;8.27;;;6.50;;
29210;SDS011;16250;49.932;10.980;2023-04-03T06:12:45;6.47;;;5.88;;
29210;SDS011;16250;49.932;10.980;2023-04-03T06:15:11;10.40;;;6.38;;
29210;SDS011;16250;49.932;10.980;2023-04-03T06:17:39;8.63;;;6.80;;
29210;SDS011;16250;49.932;10.980;2023-04-03T06:20:04;8.52;;;6.65;;
29210;SDS011;16250;49.932;10.980;2023-04-03T06:22:30;6.70;;;5.97;;
29210;SDS011;16250;49.932;10.980;2023-04-03T06:24:56;8.13;;;6.07;;
29210;SDS011;16250;49.932;10.980;2023-04-03T06:27:22;7.90;;;5.70;;
29210;SDS011;16250;49.932;10.980;2023-04-03T06:29:47;7.88;;;5.35;;
29210;SDS011;16250;49.932;10.980;2023-04-03T06:32:14;8.40;;;5.97;;
29210;SDS011;16250;49.932;10.980;2023-04-03T06:34:40;8.73;;;5.55;;
29210;SDS011;16250;49.932;10.980;2023-04-03T06:37:06;8.05;;;5.68;;
29210;SDS011;16250;49.932;10.980;2023-04-03T06:39:35;8.85;;;5.97;;
29210;SDS011;16250;49.932;10.980;2023-04-03T06:42:00;6.80;;;4.90;;
29210;SDS011;16250;49.932;10.980;2023-04-03T06:44:34;11.27;;;6.47;;
29210;SDS011;16250;49.932;10.980;2023-04-03T06:47:00;6.75;;;5.50;;
29210;SDS011;16250;49.932;10.980;2023-04-03T06:49:25;11.48;;;5.80;;
29210;SDS011;16250;49.932;10.980;2023-04-03T06:51:51;5.95;;;5.35;;
29210;SDS011;16250;49.932;10.980;2023-04-03T06:54:16;8.88;;;6.55;;
29210;SDS011;16250;49.932;10.980;2023-04-03T06:56:42;9.07;;;7.07;;
29210;SDS011;16250;49.932;10.980;2023-04-03T06:59:07;6.95;;;6.10;;
29210;SDS011;16250;49.932;10.980;2023-04-03T07:01:33;8.57;;;5.50;;
29210;SDS011;16250;49.932;10.980;2023-04-03T07:03:58;8.27;;;5.70;;
29210;SDS011;16250;49.932;10.980;2023-04-03T07:06:24;7.10;;;6.05;;
29210;SDS011;16250;49.932;10.980;2023-04-03T07:08:51;7.45;;;5.97;;
29210;SDS011;16250;49.932;10.980;2023-04-03T07:11:17;6.93;;;5.55;;
29210;SDS011;16250;49.932;10.980;2023-04-03T07:13:42;6.60;;;5.28;;
29210;SDS011;16250;49.932;10.980;2023-04-03T07:16:08;7.20;;;5.25;;
29210;SDS011;16250;49.932;10.980;2023-04-03T07:18:34;7.30;;;5.60;;
29210;SDS011;16250;49.932;10.980;2023-04-03T07:20:59;7.68;;;5.22;;
29210;SDS011;16250;49.932;10.980;2023-04-03T07:23:25;8.90;;;5.60;;
29210;SDS011;16250;49.932;10.980;2023-04-03T07:25:50;7.50;;;5.15;;
29210;SDS011;16250;49.932;10.980;2023-04-03T07:28:17;5.53;;;4.57;;
29210;SDS011;16250;49.932;10.980;2023-04-03T07:30:44;7.63;;;5.22;;
29210;SDS011;16250;49.932;10.980;2023-04-03T07:33:11;8.95;;;4.95;;
29210;SDS011;16250;49.932;10.980;2023-04-03T07:35:36;9.77;;;5.78;;
29210;SDS011;16250;49.932;10.980;2023-04-03T07:38:02;7.80;;;5.13;;
29210;SDS011;16250;49.932;10.980;2023-04-03T07:40:28;6.28;;;4.60;;
29210;SDS011;16250;49.932;10.980;2023-04-03T07:42:53;7.53;;;4.35;;
29210;SDS011;16250;49.932;10.980;2023-04-03T07:45:19;9.10;;;5.10;;
29210;SDS011;16250;49.932;10.980;2023-04-03T07:47:45;6.05;;;4.95;;
29210;SDS011;16250;49.932;10.980;2023-04-03T07:50:10;6.90;;;4.75;;
29210;SDS011;16250;49.932;10.980;2023-04-03T07:52:36;7.95;;;4.53;;
29210;SDS011;16250;49.932;10.980;2023-04-03T07:55:01;8.25;;;4.57;;
29210;SDS011;16250;49.932;10.980;2023-04-03T07:57:26;8.38;;;4.40;;
29210;SDS011;16250;49.932;10.980;2023-04-03T07:59:52;7.35;;;4.60;;
29210;SDS011;16250;49.932;10.980;2023-04-03T08:02:17;6.47;;;4.43;;
29210;SDS011;16250;49.932;10.980;2023-04-03T08:04:42;5.03;;;4.13;;
29210;SDS011;16250;49.932;10.980;2023-04-03T08:07:08;7.88;;;4.97;;
29210;SDS011;16250;49.932;10.980;2023-04-03T08:09:33;8.30;;;4.53;;
29210;SDS011;16250;49.932;10.980;2023-04-03T08:11:58;6.60;;;4.10;;
29210;SDS011;16250;49.932;10.980;2023-04-03T08:14:24;5.57;;;4.28;;
29210;SDS011;16250;49.932;10.980;2023-04-03T08:16:50;9.00;;;5.18;;
29210;SDS011;16250;49.932;10.980;2023-04-03T08:19:16;6.00;;;3.95;;
29210;SDS011;16250;49.932;10.980;2023-04-03T08:21:43;4.65;;;4.10;;
29210;SDS011;16250;49.932;10.980;2023-04-03T08:24:09;5.95;;;3.92;;
29210;SDS011;16250;49.932;10.980;2023-04-03T08:26:34;5.75;;;3.47;;
29210;SDS011;16250;49.932;10.980;2023-04-03T08:29:00;6.70;;;3.78;;
29210;SDS011;16250;49.932;10.980;2023-04-03T08:31:26;7.35;;;4.10;;
29210;SDS011;16250;49.932;10.980;2023-04-03T08:33:51;5.65;;;3.88;;
29210;SDS011;16250;49.932;10.980;2023-04-03T08:36:24;5.00;;;3.45;;
29210;SDS011;16250;49.932;10.980;2023-04-03T08:38:51;4.82;;;3.30;;
29210;SDS011;16250;49.932;10.980;2023-04-03T08:49:44;5.85;;;3.78;;
29210;SDS011;16250;49.932;10.980;2023-04-03T08:52:17;5.00;;;3.22;;
29210;SDS011;16250;49.932;10.980;2023-04-03T08:57:17;5.38;;;3.50;;
29210;SDS011;16250;49.932;10.980;2023-04-03T08:59:51;5.00;;;3.38;;
29210;SDS011;16250;49.932;10.980;2023-04-03T09:02:25;4.97;;;3.55;;
29210;SDS011;16250;49.932;10.980;2023-04-03T09:04:52;4.95;;;3.75;;
29210;SDS011;16250;49.932;10.980;2023-04-03T09:07:33;4.90;;;3.50;;
29210;SDS011;16250;49.932;10.980;2023-04-03T09:10:02;6.45;;;3.42;;
29210;SDS011;16250;49.932;10.980;2023-04-03T09:12:32;4.93;;;3.20;;
29210;SDS011;16250;49.932;10.980;2023-04-03T09:15:07;7.38;;;3.53;;
29210;SDS011;16250;49.932;10.980;2023-04-03T09:17:41;6.85;;;3.50;;
29210;SDS011;16250;49.932;10.980;2023-04-03T09:22:36;5.07;;;3.05;;
29210;SDS011;16250;49.932;10.980;2023-04-03T09:25:10;5.75;;;3.30;;
29210;SDS011;16250;49.932;10.980;2023-04-03T09:27:39;4.22;;;3.00;;
29210;SDS011;16250;49.932;10.980;2023-04-03T09:30:04;3.95;;;2.88;;
29210;SDS011;16250;49.932;10.980;2023-04-03T09:32:35;3.63;;;2.72;;
29210;SDS011;16250;49.932;10.980;2023-04-03T09:35:14;3.63;;;2.80;;
29210;SDS011;16250;49.932;10.980;2023-04-03T09:37:41;5.50;;;3.70;;
29210;SDS011;16250;49.932;10.980;2023-04-03T09:40:27;4.82;;;2.95;;
29210;SDS011;16250;49.932;10.980;2023-04-03T09:43:37;5.55;;;2.60;;
29210;SDS011;16250;49.932;10.980;2023-04-03T09:45:46;3.90;;;2.53;;
29210;SDS011;16250;49.932;10.980;2023-04-03T09:58:41;3.85;;;1.95;;
29210;SDS011;16250;49.932;10.980;2023-04-03T10:01:30;4.57;;;2.58;;
29210;SDS011;16250;49.932;10.980;2023-04-03T10:06:38;4.00;;;2.55;;
29210;SDS011;16250;49.932;10.980;2023-04-03T10:09:28;5.25;;;2.45;;
29210;SDS011;16250;49.932;10.980;2023-04-03T10:11:59;3.88;;;2.33;;
29210;SDS011;16250;49.932;10.980;2023-04-03T10:14:38;3.92;;;2.33;;
29210;SDS011;16250;49.932;10.980;2023-04-03T10:19:50;5.00;;;2.25;;
29210;SDS011;16250;49.932;10.980;2023-04-03T10:28:26;3.33;;;2.10;;
29210;SDS011;16250;49.932;10.980;2023-04-03T10:55:53;3.58;;;2.30;;
29210;SDS011;16250;49.932;10.980;2023-04-03T10:58:25;3.33;;;2.28;;
29210;SDS011;16250;49.932;10.980;2023-04-03T11:00:53;2.53;;;2.03;;
29210;SDS011;16250;49.932;10.980;2023-04-03T11:03:27;2.80;;;1.92;;
29210;SDS011;16250;49.932;10.980;2023-04-03T11:05:56;4.15;;;1.95;;
29210;SDS011;16250;49.932;10.980;2023-04-03T11:08:43;2.80;;;1.90;;
29210;SDS011;16250;49.932;10.980;2023-04-03T11:11:11;3.40;;;1.90;;
29210;SDS011;16250;49.932;10.980;2023-04-03T11:13:40;3.38;;;2.10;;
29210;SDS011;16250;49.932;10.980;2023-04-03T11:16:09;3.10;;;2.00;;
29210;SDS011;16250;49.932;10.980;2023-04-03T11:18:45;5.72;;;2.78;;
29210;SDS011;16250;49.932;10.980;2023-04-03T11:24:00;3.15;;;2.35;;
29210;SDS011;16250;49.932;10.980;2023-04-03T11:26:29;3.03;;;2.35;;
29210;SDS011;16250;49.932;10.980;2023-04-03T11:29:08;2.45;;;2.20;;
29210;SDS011;16250;49.932;10.980;2023-04-03T11:34:27;2.50;;;2.10;;
29210;SDS011;16250;49.932;10.980;2023-04-03T11:36:59;3.05;;;2.00;;
29210;SDS011;16250;49.932;10.980;2023-04-03T11:39:32;5.40;;;2.40;;
29210;SDS011;16250;49.932;10.980;2023-04-03T11:45:15;2.97;;;2.33;;
29210;SDS011;16250;49.932;10.980;2023-04-03T12:35:14;3.00;;;2.22;;
29210;SDS011;16250;49.932;10.980;2023-04-03T12:40:19;3.88;;;2.20;;
29210;SDS011;16250;49.932;10.980;2023-04-03T12:45:41;3.55;;;2.40;;
29210;SDS011;16250;49.932;10.980;2023-04-03T12:48:16;4.32;;;2.30;;
29210;SDS011;16250;49.932;10.980;2023-04-03T12:50:44;2.90;;;1.95;;
29210;SDS011;16250;49.932;10.980;2023-04-03T12:53:16;3.58;;;2.22;;
29210;SDS011;16250;49.932;10.980;2023-04-03T12:55:43;2.95;;;2.10;;
29210;SDS011;16250;49.932;10.980;2023-04-03T12:58:16;3.45;;;2.00;;
29210;SDS011;16250;49.932;10.980;2023-04-03T13:01:00;4.70;;;2.25;;
29210;SDS011;16250;49.932;10.980;2023-04-03T13:03:29;2.70;;;2.10;;
29210;SDS011;16250;49.932;10.980;2023-04-03T13:05:57;4.50;;;2.42;;
29210;SDS011;16250;49.932;10.980;2023-04-03T13:08:25;4.63;;;2.03;;
29210;SDS011;16250;49.932;10.980;2023-04-03T13:10:53;3.58;;;2.20;;
29210;SDS011;16250;49.932;10.980;2023-04-03T13:13:20;3.63;;;1.90;;
29210;SDS011;16250;49.932;10.980;2023-04-03T13:15:47;3.17;;;1.73;;
29210;SDS011;16250;49.932;10.980;2023-04-03T13:18:24;4.13;;;2.08;;
29210;SDS011;16250;49.932;10.980;2023-04-03T13:20:51;3.20;;;2.00;;
29210;SDS011;16250;49.932;10.980;2023-04-03T13:23:17;3.30;;;2.20;;
29210;SDS011;16250;49.932;10.980;2023-04-03T13:25:45;3.55;;;1.90;;
29210;SDS011;16250;49.932;10.980;2023-04-03T13:28:13;3.05;;;1.88;;
29210;SDS011;16250;49.932;10.980;2023-04-03T13:30:53;2.78;;;1.67;;
29210;SDS011;16250;49.932;10.980;2023-04-03T13:33:22;2.90;;;1.95;;
29210;SDS011;16250;49.932;10.980;2023-04-03T13:35:54;2.88;;;1.90;;
29210;SDS011;16250;49.932;10.980;2023-04-03T13:38:26;4.53;;;1.90;;
29210;SDS011;16250;49.932;10.980;2023-04-03T13:40:57;5.07;;;1.90;;
29210;SDS011;16250;49.932;10.980;2023-04-03T13:43:29;4.97;;;1.90;;
29210;SDS011;16250;49.932;10.980;2023-04-03T13:45:59;3.22;;;1.80;;
29210;SDS011;16250;49.932;10.980;2023-04-03T13:48:25;3.67;;;1.75;;
29210;SDS011;16250;49.932;10.980;2023-04-03T13:51:04;3.00;;;1.80;;
29210;SDS011;16250;49.932;10.980;2023-04-03T13:53:45;3.17;;;2.00;;
29210;SDS011;16250;49.932;10.980;2023-04-03T13:56:27;2.28;;;1.70;;
29210;SDS011;16250;49.932;10.980;2023-04-03T14:04:11;4.13;;;1.90;;
29210;SDS011;16250;49.932;10.980;2023-04-03T14:06:42;2.28;;;1.48;;
29210;SDS011;16250;49.932;10.980;2023-04-03T14:09:07;2.60;;;1.70;;
29210;SDS011;16250;49.932;10.980;2023-04-03T14:11:33;3.15;;;2.20;;
29210;SDS011;16250;49.932;10.980;2023-04-03T14:14:00;2.95;;;1.58;;
29210;SDS011;16250;49.932;10.980;2023-04-03T14:16:31;3.95;;;1.60;;
29210;SDS011;16250;49.932;10.980;2023-04-03T14:18:58;2.60;;;1.65;;
29210;SDS011;16250;49.932;10.980;2023-04-03T14:21:23;2.17;;;1.80;;
29210;SDS011;16250;49.932;10.980;2023-04-03T14:23:49;3.35;;;1.90;;
29210;SDS011;16250;49.932;10.980;2023-04-03T14:26:16;3.65;;;1.95;;
29210;SDS011;16250;49.932;10.980;2023-04-03T14:28:44;2.75;;;1.70;;
29210;SDS011;16250;49.932;10.980;2023-04-03T14:31:11;5.07;;;1.83;;
29210;SDS011;16250;49.932;10.980;2023-04-03T14:33:38;3.28;;;1.85;;
29210;SDS011;16250;49.932;10.980;2023-04-03T14:36:14;2.67;;;1.73;;
29210;SDS011;16250;49.932;10.980;2023-04-03T14:38:41;3.47;;;2.10;;
29210;SDS011;16250;49.932;10.980;2023-04-03T14:41:07;4.00;;;1.67;;
29210;SDS011;16250;49.932;10.980;2023-04-03T14:43:32;2.40;;;1.55;;
29210;SDS011;16250;49.932;10.980;2023-04-03T14:45:58;2.63;;;1.50;;
29210;SDS011;16250;49.932;10.980;2023-04-03T14:48:24;4.13;;;1.92;;
29210;SDS011;16250;49.932;10.980;2023-04-03T14:50:51;3.80;;;1.75;;
29210;SDS011;16250;49.932;10.980;2023-04-03T14:53:18;2.63;;;1.70;;
29210;SDS011;16250;49.932;10.980;2023-04-03T14:55:47;2.13;;;1.80;;
29210;SDS011;16250;49.932;10.980;2023-04-03T14:58:18;3.88;;;1.33;;
29210;SDS011;16250;49.932;10.980;2023-04-03T15:00:44;2.78;;;1.52;;
29210;SDS011;16250;49.932;10.980;2023-04-03T15:03:15;2.75;;;1.40;;
29210;SDS011;16250;49.932;10.980;2023-04-03T15:05:45;2.55;;;1.60;;
29210;SDS011;16250;49.932;10.980;2023-04-03T15:08:19;2.67;;;1.35;;
29210;SDS011;16250;49.932;10.980;2023-04-03T15:10:46;2.70;;;1.63;;
29210;SDS011;16250;49.932;10.980;2023-04-03T15:13:12;3.05;;;1.70;;
29210;SDS011;16250;49.932;10.980;2023-04-03T15:15:38;2.60;;;1.73;;
29210;SDS011;16250;49.932;10.980;2023-04-03T15:18:03;3.60;;;1.70;;
29210;SDS011;16250;49.932;10.980;2023-04-03T15:20:29;3.80;;;1.88;;
29210;SDS011;16250;49.932;10.980;2023-04-03T15:22:58;4.57;;;1.95;;
29210;SDS011;16250;49.932;10.980;2023-04-03T15:25:26;3.08;;;1.40;;
29210;SDS011;16250;49.932;10.980;2023-04-03T15:27:52;2.47;;;1.35;;
29210;SDS011;16250;49.932;10.980;2023-04-03T15:30:18;3.28;;;1.67;;
29210;SDS011;16250;49.932;10.980;2023-04-03T15:32:44;2.78;;;1.40;;
29210;SDS011;16250;49.932;10.980;2023-04-03T15:35:10;3.53;;;1.77;;
29210;SDS011;16250;49.932;10.980;2023-04-03T15:37:35;2.78;;;1.80;;
29210;SDS011;16250;49.932;10.980;2023-04-03T15:40:01;4.53;;;1.70;;
29210;SDS011;16250;49.932;10.980;2023-04-03T15:42:27;4.43;;;1.80;;
29210;SDS011;16250;49.932;10.980;2023-04-03T15:44:52;2.60;;;1.30;;
29210;SDS011;16250;49.932;10.980;2023-04-03T15:47:18;3.30;;;1.77;;
29210;SDS011;16250;49.932;10.980;2023-04-03T15:49:43;2.25;;;1.20;;
29210;SDS011;16250;49.932;10.980;2023-04-03T15:52:09;2.20;;;1.33;;
29210;SDS011;16250;49.932;10.980;2023-04-03T15:54:34;2.20;;;1.42;;
29210;SDS011;16250;49.932;10.980;2023-04-03T15:56:59;3.22;;;1.20;;
29210;SDS011;16250;49.932;10.980;2023-04-03T15:59:25;2.45;;;1.85;;
29210;SDS011;16250;49.932;10.980;2023-04-03T16:01:50;4.65;;;1.42;;
29210;SDS011;16250;49.932;10.980;2023-04-03T16:04:16;3.67;;;1.60;;
29210;SDS011;16250;49.932;10.980;2023-04-03T16:06:42;2.13;;;1.17;;
29210;SDS011;16250;49.932;10.980;2023-04-03T16:09:07;3.42;;;1.30;;
29210;SDS011;16250;49.932;10.980;2023-04-03T16:11:33;3.00;;;1.40;;
29210;SDS011;16250;49.932;10.980;2023-04-03T16:14:00;2.53;;;1.63;;
29210;SDS011;16250;49.932;10.980;2023-04-03T16:16:25;2.13;;;1.65;;
29210;SDS011;16250;49.932;10.980;2023-04-03T16:18:53;3.47;;;1.92;;
29210;SDS011;16250;49.932;10.980;2023-04-03T16:21:18;2.35;;;1.80;;
29210;SDS011;16250;49.932;10.980;2023-04-03T16:23:44;2.85;;;1.80;;
29210;SDS011;16250;49.932;10.980;2023-04-03T16:26:10;2.95;;;1.50;;
29210;SDS011;16250;49.932;10.980;2023-04-03T16:28:35;2.17;;;1.50;;
29210;SDS011;16250;49.932;10.980;2023-04-03T16:31:01;2.72;;;1.33;;
29210;SDS011;16250;49.932;10.980;2023-04-03T16:33:26;3.25;;;1.23;;
29210;SDS011;16250;49.932;10.980;2023-04-03T16:35:52;4.15;;;1.70;;
29210;SDS011;16250;49.932;10.980;2023-04-03T16:38:18;2.78;;;1.60;;
29210;SDS011;16250;49.932;10.980;2023-04-03T16:40:47;4.97;;;1.60;;
29210;SDS011;16250;49.932;10.980;2023-04-03T16:43:13;3.97;;;1.50;;
29210;SDS011;16250;49.932;10.980;2023-04-03T16:45:40;2.50;;;1.38;;
29210;SDS011;16250;49.932;10.980;2023-04-03T16:48:05;3.88;;;1.60;;